sensor_id;sensor_type;location;lat;lon;timestamp;pressure;altitude;pressure_sealevel;temperature;humidity
75039;BME280;63609;49.992;14.512;2023-07-20T00:03:31;97589.53;;;15.87;53.54
75039;BME280;63609;49.992;14.512;2023-07-20T00:05:58;97588.00;;;15.99;53.58
75039;BME280;63609;49.992;14.512;2023-07-20T00:08:25;97588.25;;;16.04;53.22
75039;BME280;63609;49.992;14.512;2023-07-20T00:10:52;97584.97;;;16.09;53.37
75039;BME280;63609;49.992;14.512;2023-07-20T00:13:19;97603.25;;;16.20;53.51
75039;BME280;63609;49.992;14.512;2023-07-20T00:15:48;97602.63;;;16.24;53.46
75039;BME280;63609;49.992;14.512;2023-07-20T00:18:16;97602.56;;;16.11;53.66
75039;BME280;63609;49.992;14.512;2023-07-20T00:20:43;97594.09;;;16.14;53.48
75039;BME280;63609;49.992;14.512;2023-07-20T00:23:10;97592.53;;;15.98;53.97
75039;BME280;63609;49.992;14.512;2023-07-20T00:25:37;97594.72;;;15.88;54.06
75039;BME280;63609;49.992;14.512;2023-07-20T00:28:04;97601.13;;;16.09;52.96
75039;BME280;63609;49.992;14.512;2023-07-20T00:30:31;97595.97;;;16.14;52.96
75039;BME280;63609;49.992;14.512;2023-07-20T00:32:58;97601.97;;;16.16;53.20
75039;BME280;63609;49.992;14.512;2023-07-20T00:35:25;97611.56;;;16.25;52.99
75039;BME280;63609;49.992;14.512;2023-07-20T00:37:52;97593.66;;;16.11;53.28
75039;BME280;63609;49.992;14.512;2023-07-20T00:40:20;97600.16;;;16.23;52.98
75039;BME280;63609;49.992;14.512;2023-07-20T00:42:47;97600.28;;;16.08;52.95
75039;BME280;63609;49.992;14.512;2023-07-20T00:45:20;97602.44;;;16.26;52.88
75039;BME280;63609;49.992;14.512;2023-07-20T00:47:49;97609.25;;;16.22;53.42
75039;BME280;63609;49.992;14.512;2023-07-20T00:50:16;97616.91;;;15.90;54.18
75039;BME280;63609;49.992;14.512;2023-07-20T00:52:45;97609.00;;;16.10;53.17
75039;BME280;63609;49.992;14.512;2023-07-20T00:55:12;97608.19;;;15.88;54.21
75039;BME280;63609;49.992;14.512;2023-07-20T00:57:39;97618.50;;;15.85;54.84
75039;BME280;63609;49.992;14.512;2023-07-20T01:00:06;97624.59;;;15.93;53.95
75039;BME280;63609;49.992;14.512;2023-07-20T01:02:33;97624.63;;;15.72;54.26
75039;BME280;63609;49.992;14.512;2023-07-20T01:05:01;97632.47;;;15.67;54.28
75039;BME280;63609;49.992;14.512;2023-07-20T01:07:36;97637.31;;;15.57;54.54
75039;BME280;63609;49.992;14.512;2023-07-20T01:12:52;97632.16;;;15.13;55.96
75039;BME280;63609;49.992;14.512;2023-07-20T01:15:19;97644.09;;;14.74;57.32
75039;BME280;63609;49.992;14.512;2023-07-20T01:17:46;97642.56;;;14.86;57.15
75039;BME280;63609;49.992;14.512;2023-07-20T01:20:19;97642.88;;;14.76;57.14
75039;BME280;63609;49.992;14.512;2023-07-20T01:23:27;97637.50;;;14.62;57.34
75039;BME280;63609;49.992;14.512;2023-07-20T01:28:46;97634.69;;;14.85;56.39
75039;BME280;63609;49.992;14.512;2023-07-20T01:31:25;97632.34;;;14.96;55.97
75039;BME280;63609;49.992;14.512;2023-07-20T01:33:56;97626.25;;;15.24;55.57
75039;BME280;63609;49.992;14.512;2023-07-20T01:36:26;97624.84;;;15.28;55.13
75039;BME280;63609;49.992;14.512;2023-07-20T01:38:54;97631.81;;;15.22;55.38
75039;BME280;63609;49.992;14.512;2023-07-20T01:41:24;97640.91;;;14.85;57.26
75039;BME280;63609;49.992;14.512;2023-07-20T01:43:51;97638.97;;;14.79;57.48
75039;BME280;63609;49.992;14.512;2023-07-20T01:46:17;97634.63;;;14.99;57.07
75039;BME280;63609;49.992;14.512;2023-07-20T01:48:45;97645.53;;;15.06;57.46
75039;BME280;63609;49.992;14.512;2023-07-20T01:51:12;97643.22;;;15.03;57.62
75039;BME280;63609;49.992;14.512;2023-07-20T01:53:44;97652.19;;;15.10;56.99
75039;BME280;63609;49.992;14.512;2023-07-20T01:56:13;97646.63;;;15.12;57.17
75039;BME280;63609;49.992;14.512;2023-07-20T01:58:40;97650.06;;;15.27;56.35
75039;BME280;63609;49.992;14.512;2023-07-20T02:01:07;97642.50;;;15.01;57.28
75039;BME280;63609;49.992;14.512;2023-07-20T02:03:34;97639.06;;;15.22;57.08
75039;BME280;63609;49.992;14.512;2023-07-20T02:06:02;97635.16;;;15.46;55.58
75039;BME280;63609;49.992;14.512;2023-07-20T02:08:30;97637.38;;;15.63;54.63
75039;BME280;63609;49.992;14.512;2023-07-20T02:10:57;97639.75;;;15.52;54.99
75039;BME280;63609;49.992;14.512;2023-07-20T02:13:25;97647.31;;;15.63;55.41
75039;BME280;63609;49.992;14.512;2023-07-20T02:15:52;97639.50;;;15.68;54.92
75039;BME280;63609;49.992;14.512;2023-07-20T02:18:20;97640.91;;;15.64;55.10
75039;BME280;63609;49.992;14.512;2023-07-20T02:20:47;97641.03;;;15.56;55.38
75039;BME280;63609;49.992;14.512;2023-07-20T02:23:15;97640.88;;;15.36;56.65
75039;BME280;63609;49.992;14.512;2023-07-20T02:25:42;97637.53;;;15.13;56.76
75039;BME280;63609;49.992;14.512;2023-07-20T02:28:09;97629.97;;;14.87;57.51
75039;BME280;63609;49.992;14.512;2023-07-20T02:30:39;97633.91;;;14.55;58.54
75039;BME280;63609;49.992;14.512;2023-07-20T02:33:07;97631.72;;;14.43;59.32
75039;BME280;63609;49.992;14.512;2023-07-20T02:35:34;97641.44;;;14.44;59.13
75039;BME280;63609;49.992;14.512;2023-07-20T02:38:01;97644.47;;;14.56;58.97
75039;BME280;63609;49.992;14.512;2023-07-20T02:40:28;97637.34;;;14.49;58.98
75039;BME280;63609;49.992;14.512;2023-07-20T02:42:55;97631.91;;;14.42;59.23
75039;BME280;63609;49.992;14.512;2023-07-20T02:45:22;97645.59;;;14.47;59.34
75039;BME280;63609;49.992;14.512;2023-07-20T02:47:51;97637.16;;;14.35;59.71
75039;BME280;63609;49.992;14.512;2023-07-20T02:50:18;97647.03;;;14.64;58.59
75039;BME280;63609;49.992;14.512;2023-07-20T02:52:45;97651.72;;;14.41;59.35
75039;BME280;63609;49.992;14.512;2023-07-20T02:55:12;97649.75;;;14.50;59.13
75039;BME280;63609;49.992;14.512;2023-07-20T02:57:39;97654.66;;;14.61;58.71
75039;BME280;63609;49.992;14.512;2023-07-20T03:00:06;97648.25;;;14.62;58.16
75039;BME280;63609;49.992;14.512;2023-07-20T03:02:34;97648.81;;;14.57;57.85
75039;BME280;63609;49.992;14.512;2023-07-20T03:05:01;97646.97;;;14.28;59.33
75039;BME280;63609;49.992;14.512;2023-07-20T03:07:32;97652.34;;;14.43;59.52
75039;BME280;63609;49.992;14.512;2023-07-20T03:09:59;97661.69;;;14.76;57.79
75039;BME280;63609;49.992;14.512;2023-07-20T03:12:27;97656.75;;;14.65;58.08
75039;BME280;63609;49.992;14.512;2023-07-20T03:14:54;97662.34;;;14.64;58.00
75039;BME280;63609;49.992;14.512;2023-07-20T03:17:21;97656.56;;;14.67;57.44
75039;BME280;63609;49.992;14.512;2023-07-20T03:19:48;97661.13;;;14.66;57.22
75039;BME280;63609;49.992;14.512;2023-07-20T03:22:15;97657.06;;;14.70;57.24
75039;BME280;63609;49.992;14.512;2023-07-20T03:24:42;97664.63;;;14.82;57.30
75039;BME280;63609;49.992;14.512;2023-07-20T03:27:09;97666.41;;;14.74;56.90
75039;BME280;63609;49.992;14.512;2023-07-20T03:29:36;97666.31;;;14.68;57.95
75039;BME280;63609;49.992;14.512;2023-07-20T03:32:04;97667.81;;;14.70;57.68
75039;BME280;63609;49.992;14.512;2023-07-20T03:34:31;97668.75;;;14.48;57.97
75039;BME280;63609;49.992;14.512;2023-07-20T03:36:58;97672.91;;;14.36;58.72
75039;BME280;63609;49.992;14.512;2023-07-20T03:39:27;97667.00;;;14.03;60.07
75039;BME280;63609;49.992;14.512;2023-07-20T03:41:53;97662.28;;;13.90;60.53
75039;BME280;63609;49.992;14.512;2023-07-20T03:44:20;97678.63;;;13.80;61.28
75039;BME280;63609;49.992;14.512;2023-07-20T03:46:48;97675.97;;;13.95;60.97
75039;BME280;63609;49.992;14.512;2023-07-20T03:49:15;97674.19;;;14.25;59.72
75039;BME280;63609;49.992;14.512;2023-07-20T03:51:42;97667.53;;;14.36;59.37
75039;BME280;63609;49.992;14.512;2023-07-20T03:54:09;97678.56;;;14.56;58.64
75039;BME280;63609;49.992;14.512;2023-07-20T03:56:37;97683.16;;;14.32;59.36
75039;BME280;63609;49.992;14.512;2023-07-20T03:59:04;97679.13;;;14.36;59.38
75039;BME280;63609;49.992;14.512;2023-07-20T04:01:31;97680.88;;;14.14;60.10
75039;BME280;63609;49.992;14.512;2023-07-20T04:04:06;97678.09;;;14.23;60.02
75039;BME280;63609;49.992;14.512;2023-07-20T04:06:34;97681.09;;;14.05;60.32
75039;BME280;63609;49.992;14.512;2023-07-20T04:09:01;97681.13;;;14.20;60.32
75039;BME280;63609;49.992;14.512;2023-07-20T04:11:28;97687.19;;;14.36;59.37
75039;BME280;63609;49.992;14.512;2023-07-20T04:13:55;97692.47;;;14.44;59.74
75039;BME280;63609;49.992;14.512;2023-07-20T04:16:24;97685.78;;;14.55;59.43
75039;BME280;63609;49.992;14.512;2023-07-20T04:18:55;97692.38;;;14.53;59.17
75039;BME280;63609;49.992;14.512;2023-07-20T04:21:22;97689.97;;;14.43;60.07
75039;BME280;63609;49.992;14.512;2023-07-20T04:23:50;97698.53;;;14.68;59.74
75039;BME280;63609;49.992;14.512;2023-07-20T04:26:18;97696.44;;;14.78;59.17
75039;BME280;63609;49.992;14.512;2023-07-20T04:28:45;97694.19;;;14.82;59.03
75039;BME280;63609;49.992;14.512;2023-07-20T04:31:20;97696.69;;;15.13;58.26
75039;BME280;63609;49.992;14.512;2023-07-20T04:33:47;97690.59;;;15.04;58.37
75039;BME280;63609;49.992;14.512;2023-07-20T04:36:16;97693.78;;;15.14;58.11
75039;BME280;63609;49.992;14.512;2023-07-20T04:38:47;97689.78;;;15.25;58.40
75039;BME280;63609;49.992;14.512;2023-07-20T04:41:18;97697.88;;;15.67;57.65
75039;BME280;63609;49.992;14.512;2023-07-20T04:43:48;97694.41;;;15.74;57.49
75039;BME280;63609;49.992;14.512;2023-07-20T04:46:23;97698.63;;;15.61;57.63
75039;BME280;63609;49.992;14.512;2023-07-20T04:48:52;97690.06;;;15.51;57.29
75039;BME280;63609;49.992;14.512;2023-07-20T04:51:19;97685.06;;;15.69;56.89
75039;BME280;63609;49.992;14.512;2023-07-20T04:53:50;97691.47;;;15.68;57.37
75039;BME280;63609;49.992;14.512;2023-07-20T04:56:17;97685.81;;;15.85;56.46
75039;BME280;63609;49.992;14.512;2023-07-20T04:58:45;97697.38;;;16.00;56.22
75039;BME280;63609;49.992;14.512;2023-07-20T05:01:13;97704.53;;;15.72;56.91
75039;BME280;63609;49.992;14.512;2023-07-20T05:03:41;97700.88;;;15.79;56.38
75039;BME280;63609;49.992;14.512;2023-07-20T05:06:09;97701.66;;;15.94;56.17
75039;BME280;63609;49.992;14.512;2023-07-20T05:08:37;97701.16;;;16.06;55.78
75039;BME280;63609;49.992;14.512;2023-07-20T05:11:04;97697.06;;;16.16;55.44
75039;BME280;63609;49.992;14.512;2023-07-20T05:13:31;97706.63;;;16.19;55.17
75039;BME280;63609;49.992;14.512;2023-07-20T05:15:58;97710.25;;;16.05;54.93
75039;BME280;63609;49.992;14.512;2023-07-20T05:18:26;97711.09;;;16.33;54.13
75039;BME280;63609;49.992;14.512;2023-07-20T05:20:53;97711.28;;;16.04;55.35
75039;BME280;63609;49.992;14.512;2023-07-20T05:23:22;97712.31;;;16.03;55.46
75039;BME280;63609;49.992;14.512;2023-07-20T05:25:56;97707.00;;;16.16;54.94
75039;BME280;63609;49.992;14.512;2023-07-20T05:28:25;97704.16;;;15.96;55.17
75039;BME280;63609;49.992;14.512;2023-07-20T05:30:53;97705.09;;;15.88;55.17
75039;BME280;63609;49.992;14.512;2023-07-20T05:33:20;97709.34;;;15.76;55.30
75039;BME280;63609;49.992;14.512;2023-07-20T05:35:47;97706.72;;;15.83;55.37
75039;BME280;63609;49.992;14.512;2023-07-20T05:38:15;97713.34;;;16.02;54.88
75039;BME280;63609;49.992;14.512;2023-07-20T05:40:43;97709.31;;;16.19;54.33
75039;BME280;63609;49.992;14.512;2023-07-20T05:43:10;97714.06;;;16.17;54.46
75039;BME280;63609;49.992;14.512;2023-07-20T05:45:41;97721.25;;;16.66;53.51
75039;BME280;63609;49.992;14.512;2023-07-20T05:48:10;97716.50;;;16.68;53.29
75039;BME280;63609;49.992;14.512;2023-07-20T05:50:42;97708.78;;;16.02;54.34
75039;BME280;63609;49.992;14.512;2023-07-20T05:53:11;97708.22;;;17.17;51.39
75039;BME280;63609;49.992;14.512;2023-07-20T05:55:38;97707.88;;;16.23;54.23
75039;BME280;63609;49.992;14.512;2023-07-20T05:58:06;97718.34;;;16.33;53.57
75039;BME280;63609;49.992;14.512;2023-07-20T06:00:33;97717.06;;;17.52;51.32
75039;BME280;63609;49.992;14.512;2023-07-20T06:03:01;97712.75;;;17.03;51.88
75039;BME280;63609;49.992;14.512;2023-07-20T06:05:29;97720.22;;;17.01;52.39
75039;BME280;63609;49.992;14.512;2023-07-20T06:07:56;97729.09;;;17.43;50.66
75039;BME280;63609;49.992;14.512;2023-07-20T06:10:25;97717.97;;;17.11;50.84
75039;BME280;63609;49.992;14.512;2023-07-20T06:12:51;97719.84;;;17.11;50.58
75039;BME280;63609;49.992;14.512;2023-07-20T06:15:31;97721.59;;;17.32;50.30
75039;BME280;63609;49.992;14.512;2023-07-20T06:17:58;97729.59;;;17.12;50.49
75039;BME280;63609;49.992;14.512;2023-07-20T06:20:25;97732.53;;;16.76;51.05
75039;BME280;63609;49.992;14.512;2023-07-20T06:22:53;97733.16;;;17.25;50.93
75039;BME280;63609;49.992;14.512;2023-07-20T06:25:20;97734.97;;;17.05;50.88
75039;BME280;63609;49.992;14.512;2023-07-20T06:27:49;97722.50;;;16.70;50.88
75039;BME280;63609;49.992;14.512;2023-07-20T06:30:18;97722.81;;;16.81;50.69
75039;BME280;63609;49.992;14.512;2023-07-20T06:32:45;97724.72;;;16.94;51.58
75039;BME280;63609;49.992;14.512;2023-07-20T06:35:12;97725.84;;;17.13;50.85
75039;BME280;63609;49.992;14.512;2023-07-20T06:37:39;97720.91;;;17.23;50.40
75039;BME280;63609;49.992;14.512;2023-07-20T06:40:06;97713.66;;;17.23;50.21
75039;BME280;63609;49.992;14.512;2023-07-20T06:42:38;97714.88;;;17.95;48.82
75039;BME280;63609;49.992;14.512;2023-07-20T06:45:08;97716.75;;;18.28;48.16
75039;BME280;63609;49.992;14.512;2023-07-20T06:47:38;97718.41;;;18.15;47.37
75039;BME280;63609;49.992;14.512;2023-07-20T06:50:06;97716.13;;;18.19;47.92
75039;BME280;63609;49.992;14.512;2023-07-20T06:52:33;97712.34;;;18.66;45.81
75039;BME280;63609;49.992;14.512;2023-07-20T06:55:01;97709.44;;;18.55;46.62
75039;BME280;63609;49.992;14.512;2023-07-20T06:57:32;97712.59;;;18.05;47.97
75039;BME280;63609;49.992;14.512;2023-07-20T06:59:59;97713.66;;;19.15;46.37
75039;BME280;63609;49.992;14.512;2023-07-20T07:02:26;97710.28;;;18.48;46.64
75039;BME280;63609;49.992;14.512;2023-07-20T07:04:53;97718.91;;;19.48;44.40
75039;BME280;63609;49.992;14.512;2023-07-20T07:07:23;97715.59;;;19.46;44.66
75039;BME280;63609;49.992;14.512;2023-07-20T07:09:53;97716.47;;;19.78;43.37
75039;BME280;63609;49.992;14.512;2023-07-20T07:12:21;97710.06;;;19.34;43.27
75039;BME280;63609;49.992;14.512;2023-07-20T07:14:48;97711.03;;;18.95;44.53
75039;BME280;63609;49.992;14.512;2023-07-20T07:17:15;97709.72;;;18.33;45.06
75039;BME280;63609;49.992;14.512;2023-07-20T07:19:45;97717.81;;;18.33;44.87
75039;BME280;63609;49.992;14.512;2023-07-20T07:22:14;97723.28;;;18.98;44.26
75039;BME280;63609;49.992;14.512;2023-07-20T07:24:43;97717.44;;;19.01;43.61
75039;BME280;63609;49.992;14.512;2023-07-20T07:27:10;97727.28;;;18.82;43.94
75039;BME280;63609;49.992;14.512;2023-07-20T07:29:37;97716.63;;;19.00;43.29
75039;BME280;63609;49.992;14.512;2023-07-20T07:32:05;97715.16;;;19.04;43.18
75039;BME280;63609;49.992;14.512;2023-07-20T07:34:32;97714.50;;;20.17;40.95
75039;BME280;63609;49.992;14.512;2023-07-20T07:37:01;97717.00;;;20.86;39.82
75039;BME280;63609;49.992;14.512;2023-07-20T07:39:29;97719.59;;;19.75;41.59
75039;BME280;63609;49.992;14.512;2023-07-20T07:41:59;97722.34;;;20.75;39.94
75039;BME280;63609;49.992;14.512;2023-07-20T07:44:27;97726.38;;;20.90;40.27
75039;BME280;63609;49.992;14.512;2023-07-20T07:46:53;97724.97;;;20.81;39.70
75039;BME280;63609;49.992;14.512;2023-07-20T07:49:21;97716.75;;;20.01;41.23
75039;BME280;63609;49.992;14.512;2023-07-20T07:51:48;97716.50;;;19.33;42.09
75039;BME280;63609;49.992;14.512;2023-07-20T07:54:15;97721.03;;;18.95;42.52
75039;BME280;63609;49.992;14.512;2023-07-20T07:56:42;97724.56;;;19.47;42.07
75039;BME280;63609;49.992;14.512;2023-07-20T07:59:11;97719.66;;;19.68;41.11
75039;BME280;63609;49.992;14.512;2023-07-20T08:01:38;97726.31;;;20.54;39.08
75039;BME280;63609;49.992;14.512;2023-07-20T08:04:05;97727.75;;;20.31;40.64
75039;BME280;63609;49.992;14.512;2023-07-20T08:06:32;97725.97;;;20.19;40.28
75039;BME280;63609;49.992;14.512;2023-07-20T08:08:59;97723.31;;;20.80;40.25
75039;BME280;63609;49.992;14.512;2023-07-20T08:11:26;97729.72;;;20.86;39.81
75039;BME280;63609;49.992;14.512;2023-07-20T08:13:53;97730.94;;;21.45;39.29
75039;BME280;63609;49.992;14.512;2023-07-20T08:16:20;97728.13;;;20.35;40.46
75039;BME280;63609;49.992;14.512;2023-07-20T08:18:47;97731.94;;;21.32;39.00
75039;BME280;63609;49.992;14.512;2023-07-20T08:21:14;97736.47;;;21.02;39.44
75039;BME280;63609;49.992;14.512;2023-07-20T08:23:41;97738.25;;;20.46;40.30
75039;BME280;63609;49.992;14.512;2023-07-20T08:26:09;97729.84;;;20.29;40.28
75039;BME280;63609;49.992;14.512;2023-07-20T08:28:37;97730.94;;;19.97;39.87
75039;BME280;63609;49.992;14.512;2023-07-20T08:31:05;97732.56;;;20.29;39.46
75039;BME280;63609;49.992;14.512;2023-07-20T08:33:34;97731.00;;;20.15;39.77
75039;BME280;63609;49.992;14.512;2023-07-20T08:36:01;97742.38;;;20.30;40.46
75039;BME280;63609;49.992;14.512;2023-07-20T08:38:31;97738.44;;;20.51;39.59
75039;BME280;63609;49.992;14.512;2023-07-20T08:40:59;97739.91;;;20.72;39.15
75039;BME280;63609;49.992;14.512;2023-07-20T08:43:28;97747.00;;;20.48;38.75
75039;BME280;63609;49.992;14.512;2023-07-20T08:45:55;97746.00;;;20.68;39.50
75039;BME280;63609;49.992;14.512;2023-07-20T08:48:25;97753.06;;;20.93;38.42
75039;BME280;63609;49.992;14.512;2023-07-20T08:50:55;97747.50;;;21.25;37.97
75039;BME280;63609;49.992;14.512;2023-07-20T08:53:24;97745.09;;;20.55;39.29
75039;BME280;63609;49.992;14.512;2023-07-20T08:55:51;97750.28;;;21.18;38.93
75039;BME280;63609;49.992;14.512;2023-07-20T08:58:23;97749.63;;;20.61;39.58
75039;BME280;63609;49.992;14.512;2023-07-20T09:00:53;97743.66;;;20.46;40.00
75039;BME280;63609;49.992;14.512;2023-07-20T09:03:21;97742.31;;;20.62;39.18
75039;BME280;63609;49.992;14.512;2023-07-20T09:05:48;97744.25;;;20.30;38.83
75039;BME280;63609;49.992;14.512;2023-07-20T09:08:15;97741.63;;;20.67;38.78
75039;BME280;63609;49.992;14.512;2023-07-20T09:10:42;97731.94;;;22.34;36.10
75039;BME280;63609;49.992;14.512;2023-07-20T09:13:14;97732.25;;;23.31;35.06
75039;BME280;63609;49.992;14.512;2023-07-20T09:15:49;97734.44;;;23.17;33.79
75039;BME280;63609;49.992;14.512;2023-07-20T09:18:28;97733.19;;;22.50;34.69
75039;BME280;63609;49.992;14.512;2023-07-20T09:21:01;97733.03;;;22.79;34.48
75039;BME280;63609;49.992;14.512;2023-07-20T09:23:30;97730.53;;;23.13;35.35
75039;BME280;63609;49.992;14.512;2023-07-20T09:25:58;97736.41;;;23.33;33.38
75039;BME280;63609;49.992;14.512;2023-07-20T09:28:25;97735.84;;;23.20;34.13
75039;BME280;63609;49.992;14.512;2023-07-20T09:30:54;97729.81;;;23.58;33.34
75039;BME280;63609;49.992;14.512;2023-07-20T09:33:24;97733.34;;;22.25;36.65
75039;BME280;63609;49.992;14.512;2023-07-20T09:35:53;97733.53;;;22.65;36.51
75039;BME280;63609;49.992;14.512;2023-07-20T09:38:25;97744.78;;;22.03;35.63
75039;BME280;63609;49.992;14.512;2023-07-20T09:40:53;97737.25;;;22.29;35.72
75039;BME280;63609;49.992;14.512;2023-07-20T09:43:21;97738.84;;;22.83;35.27
75039;BME280;63609;49.992;14.512;2023-07-20T09:45:57;97728.78;;;22.84;34.16
75039;BME280;63609;49.992;14.512;2023-07-20T09:48:25;97728.75;;;23.19;34.33
75039;BME280;63609;49.992;14.512;2023-07-20T09:50:56;97739.34;;;22.03;35.57
75039;BME280;63609;49.992;14.512;2023-07-20T09:53:25;97728.09;;;23.40;32.68
75039;BME280;63609;49.992;14.512;2023-07-20T09:55:53;97726.91;;;24.21;32.27
75039;BME280;63609;49.992;14.512;2023-07-20T09:58:22;97733.34;;;24.32;31.63
75039;BME280;63609;49.992;14.512;2023-07-20T10:00:51;97724.47;;;24.08;31.37
75039;BME280;63609;49.992;14.512;2023-07-20T10:03:21;97724.78;;;23.95;31.17
75039;BME280;63609;49.992;14.512;2023-07-20T10:06:08;97738.84;;;23.47;31.54
75039;BME280;63609;49.992;14.512;2023-07-20T10:08:38;97734.34;;;23.40;31.70
75039;BME280;63609;49.992;14.512;2023-07-20T10:11:11;97730.03;;;23.28;31.60
75039;BME280;63609;49.992;14.512;2023-07-20T10:13:43;97729.88;;;23.75;31.90
75039;BME280;63609;49.992;14.512;2023-07-20T10:16:15;97726.38;;;24.75;29.18
75039;BME280;63609;49.992;14.512;2023-07-20T10:18:55;97724.38;;;24.03;31.39
75039;BME280;63609;49.992;14.512;2023-07-20T10:21:27;97724.97;;;23.20;32.04
75039;BME280;63609;49.992;14.512;2023-07-20T10:23:58;97718.47;;;22.97;32.39
75039;BME280;63609;49.992;14.512;2023-07-20T10:26:26;97716.63;;;22.51;32.75
75039;BME280;63609;49.992;14.512;2023-07-20T10:28:54;97715.13;;;23.07;32.99
75039;BME280;63609;49.992;14.512;2023-07-20T10:31:23;97716.81;;;23.48;32.00
75039;BME280;63609;49.992;14.512;2023-07-20T10:33:51;97718.94;;;23.46;31.45
75039;BME280;63609;49.992;14.512;2023-07-20T10:36:25;97720.75;;;22.65;31.03
75039;BME280;63609;49.992;14.512;2023-07-20T10:38:57;97722.13;;;22.44;31.95
75039;BME280;63609;49.992;14.512;2023-07-20T10:46:44;97741.53;;;20.30;36.06
75039;BME280;63609;49.992;14.512;2023-07-20T10:49:13;97737.34;;;20.59;36.47
75039;BME280;63609;49.992;14.512;2023-07-20T10:51:48;97736.16;;;20.91;37.13
75039;BME280;63609;49.992;14.512;2023-07-20T10:56:49;97740.00;;;21.02;35.66
75039;BME280;63609;49.992;14.512;2023-07-20T11:02:09;97727.41;;;21.74;34.70
75039;BME280;63609;49.992;14.512;2023-07-20T11:07:07;97730.56;;;21.05;35.20
75039;BME280;63609;49.992;14.512;2023-07-20T11:09:38;97737.66;;;21.42;35.00
75039;BME280;63609;49.992;14.512;2023-07-20T11:12:18;97721.84;;;21.69;33.88
75039;BME280;63609;49.992;14.512;2023-07-20T11:14:56;97736.44;;;20.83;37.06
75039;BME280;63609;49.992;14.512;2023-07-20T11:17:32;97732.59;;;20.73;39.77
75039;BME280;63609;49.992;14.512;2023-07-20T11:20:00;97734.97;;;20.13;42.52
75039;BME280;63609;49.992;14.512;2023-07-20T11:22:31;97729.09;;;20.22;40.93
75039;BME280;63609;49.992;14.512;2023-07-20T11:24:58;97732.69;;;21.88;40.28
75039;BME280;63609;49.992;14.512;2023-07-20T11:27:25;97724.84;;;23.15;41.69
75039;BME280;63609;49.992;14.512;2023-07-20T11:29:52;97719.84;;;23.23;35.74
75039;BME280;63609;49.992;14.512;2023-07-20T11:32:23;97714.94;;;23.65;34.67
75039;BME280;63609;49.992;14.512;2023-07-20T11:34:51;97719.19;;;24.18;34.80
75039;BME280;63609;49.992;14.512;2023-07-20T11:37:18;97718.22;;;23.51;32.70
75039;BME280;63609;49.992;14.512;2023-07-20T11:39:46;97723.22;;;23.42;33.15
75039;BME280;63609;49.992;14.512;2023-07-20T11:42:13;97713.00;;;24.23;30.60
75039;BME280;63609;49.992;14.512;2023-07-20T11:45:03;97704.81;;;24.06;30.21
75039;BME280;63609;49.992;14.512;2023-07-20T11:47:32;97699.38;;;24.23;31.01
75039;BME280;63609;49.992;14.512;2023-07-20T11:50:03;97703.69;;;24.52;30.39
75039;BME280;63609;49.992;14.512;2023-07-20T11:52:31;97694.91;;;24.17;29.71
75039;BME280;63609;49.992;14.512;2023-07-20T11:54:58;97699.88;;;23.75;30.79
75039;BME280;63609;49.992;14.512;2023-07-20T11:57:25;97697.22;;;24.42;29.45
75039;BME280;63609;49.992;14.512;2023-07-20T11:59:58;97700.63;;;25.75;27.78
75039;BME280;63609;49.992;14.512;2023-07-20T12:02:30;97689.00;;;26.17;27.23
75039;BME280;63609;49.992;14.512;2023-07-20T12:04:58;97690.03;;;25.57;26.77
75039;BME280;63609;49.992;14.512;2023-07-20T12:07:28;97691.31;;;25.27;27.16
75039;BME280;63609;49.992;14.512;2023-07-20T12:10:10;97691.19;;;24.56;27.58
75039;BME280;63609;49.992;14.512;2023-07-20T12:12:38;97690.84;;;24.19;27.94
75039;BME280;63609;49.992;14.512;2023-07-20T12:15:22;97685.06;;;23.14;29.23
75039;BME280;63609;49.992;14.512;2023-07-20T12:17:52;97685.28;;;23.12;30.36
75039;BME280;63609;49.992;14.512;2023-07-20T12:20:31;97689.94;;;22.41;31.18
75039;BME280;63609;49.992;14.512;2023-07-20T12:23:09;97690.03;;;22.11;31.09
75039;BME280;63609;49.992;14.512;2023-07-20T12:25:41;97682.56;;;23.12;30.02
75039;BME280;63609;49.992;14.512;2023-07-20T12:28:13;97679.91;;;22.89;30.43
75039;BME280;63609;49.992;14.512;2023-07-20T12:30:42;97686.59;;;23.78;29.63
75039;BME280;63609;49.992;14.512;2023-07-20T12:33:11;97684.56;;;24.02;30.41
75039;BME280;63609;49.992;14.512;2023-07-20T12:35:44;97673.66;;;24.02;28.31
75039;BME280;63609;49.992;14.512;2023-07-20T12:38:11;97676.72;;;25.16;27.79
75039;BME280;63609;49.992;14.512;2023-07-20T12:40:39;97672.50;;;25.79;26.57
75039;BME280;63609;49.992;14.512;2023-07-20T12:43:07;97671.25;;;26.61;25.19
75039;BME280;63609;49.992;14.512;2023-07-20T12:45:34;97666.75;;;26.40;25.88
75039;BME280;63609;49.992;14.512;2023-07-20T12:48:02;97666.25;;;26.90;25.28
75039;BME280;63609;49.992;14.512;2023-07-20T12:50:30;97660.97;;;26.73;24.56
75039;BME280;63609;49.992;14.512;2023-07-20T12:52:57;97659.75;;;26.64;25.07
75039;BME280;63609;49.992;14.512;2023-07-20T12:55:25;97669.47;;;24.45;27.38
75039;BME280;63609;49.992;14.512;2023-07-20T12:57:52;97678.06;;;23.75;28.64
75039;BME280;63609;49.992;14.512;2023-07-20T13:00:19;97674.88;;;24.11;28.00
75039;BME280;63609;49.992;14.512;2023-07-20T13:02:46;97668.84;;;23.92;26.88
75039;BME280;63609;49.992;14.512;2023-07-20T13:05:15;97671.94;;;24.13;26.30
75039;BME280;63609;49.992;14.512;2023-07-20T13:07:42;97673.84;;;23.38;28.99
75039;BME280;63609;49.992;14.512;2023-07-20T13:10:12;97688.28;;;23.67;29.29
75039;BME280;63609;49.992;14.512;2023-07-20T13:12:39;97673.16;;;22.79;30.30
75039;BME280;63609;49.992;14.512;2023-07-20T13:15:09;97680.06;;;23.10;29.87
75039;BME280;63609;49.992;14.512;2023-07-20T13:17:37;97670.56;;;24.32;29.41
75039;BME280;63609;49.992;14.512;2023-07-20T13:20:06;97676.47;;;23.90;29.20